sensor_id;sensor_type;location;lat;lon;timestamp;P1;durP1;ratioP1;P2;durP2;ratioP2
18286;SDS011;9269;50.838;12.094;2024-02-04T00:02:30;0.80;;;0.80;;
18286;SDS011;9269;50.838;12.094;2024-02-04T00:05:18;0.57;;;0.57;;
18286;SDS011;9269;50.838;12.094;2024-02-04T00:07:50;0.77;;;0.77;;
18286;SDS011;9269;50.838;12.094;2024-02-04T00:10:22;1.30;;;0.73;;
18286;SDS011;9269;50.838;12.094;2024-02-04T00:12:54;0.50;;;0.50;;
18286;SDS011;9269;50.838;12.094;2024-02-04T00:15:29;0.70;;;0.70;;
18286;SDS011;9269;50.838;12.094;2024-02-04T00:22:09;0.77;;;0.77;;
18286;SDS011;9269;50.838;12.094;2024-02-04T00:24:41;0.60;;;0.60;;
18286;SDS011;9269;50.838;12.094;2024-02-04T00:27:25;0.67;;;0.67;;
18286;SDS011;9269;50.838;12.094;2024-02-04T00:29:59;0.90;;;0.90;;
18286;SDS011;9269;50.838;12.094;2024-02-04T00:32:33;0.70;;;0.70;;
18286;SDS011;9269;50.838;12.094;2024-02-04T00:35:07;0.70;;;0.70;;
18286;SDS011;9269;50.838;12.094;2024-02-04T00:37:41;0.50;;;0.50;;
18286;SDS011;9269;50.838;12.094;2024-02-04T00:40:30;0.70;;;0.70;;
18286;SDS011;9269;50.838;12.094;2024-02-04T00:43:08;0.80;;;0.80;;
18286;SDS011;9269;50.838;12.094;2024-02-04T00:45:40;0.83;;;0.70;;
18286;SDS011;9269;50.838;12.094;2024-02-04T00:48:27;0.60;;;0.60;;
18286;SDS011;9269;50.838;12.094;2024-02-04T00:51:12;0.67;;;0.67;;
18286;SDS011;9269;50.838;12.094;2024-02-04T00:53:54;1.13;;;1.07;;
18286;SDS011;9269;50.838;12.094;2024-02-04T00:56:41;0.93;;;0.90;;
18286;SDS011;9269;50.838;12.094;2024-02-04T00:59:29;0.60;;;0.60;;
18286;SDS011;9269;50.838;12.094;2024-02-04T01:02:15;0.83;;;0.83;;
18286;SDS011;9269;50.838;12.094;2024-02-04T01:05:03;0.70;;;0.70;;
18286;SDS011;9269;50.838;12.094;2024-02-04T01:07:45;1.47;;;0.73;;
18286;SDS011;9269;50.838;12.094;2024-02-04T01:10:27;3.07;;;1.90;;
18286;SDS011;9269;50.838;12.094;2024-02-04T01:13:11;0.73;;;0.73;;
18286;SDS011;9269;50.838;12.094;2024-02-04T01:15:43;0.67;;;0.67;;
18286;SDS011;9269;50.838;12.094;2024-02-04T01:18:15;1.17;;;0.63;;
18286;SDS011;9269;50.838;12.094;2024-02-04T01:21:03;1.03;;;0.67;;
18286;SDS011;9269;50.838;12.094;2024-02-04T01:23:35;0.97;;;0.83;;
18286;SDS011;9269;50.838;12.094;2024-02-04T01:26:11;0.73;;;0.73;;
18286;SDS011;9269;50.838;12.094;2024-02-04T01:29:00;0.60;;;0.60;;
18286;SDS011;9269;50.838;12.094;2024-02-04T01:31:37;1.00;;;1.00;;
18286;SDS011;9269;50.838;12.094;2024-02-04T01:34:09;1.20;;;1.10;;
18286;SDS011;9269;50.838;12.094;2024-02-04T01:36:44;0.70;;;0.70;;
18286;SDS011;9269;50.838;12.094;2024-02-04T01:39:32;1.70;;;1.13;;
18286;SDS011;9269;50.838;12.094;2024-02-04T01:42:21;1.20;;;1.10;;
18286;SDS011;9269;50.838;12.094;2024-02-04T01:44:53;1.13;;;1.03;;
18286;SDS011;9269;50.838;12.094;2024-02-04T01:47:25;1.17;;;1.07;;
18286;SDS011;9269;50.838;12.094;2024-02-04T01:50:02;1.37;;;1.20;;
18286;SDS011;9269;50.838;12.094;2024-02-04T01:52:51;1.40;;;1.30;;
18286;SDS011;9269;50.838;12.094;2024-02-04T01:55:40;0.90;;;0.90;;
18286;SDS011;9269;50.838;12.094;2024-02-04T01:58:11;1.17;;;1.03;;
18286;SDS011;9269;50.838;12.094;2024-02-04T02:00:43;0.97;;;0.93;;
18286;SDS011;9269;50.838;12.094;2024-02-04T02:03:33;1.43;;;1.30;;
18286;SDS011;9269;50.838;12.094;2024-02-04T02:06:21;1.83;;;1.10;;
18286;SDS011;9269;50.838;12.094;2024-02-04T02:09:09;1.00;;;1.00;;
18286;SDS011;9269;50.838;12.094;2024-02-04T02:12:01;1.47;;;1.33;;
18286;SDS011;9269;50.838;12.094;2024-02-04T02:14:46;1.20;;;1.10;;
18286;SDS011;9269;50.838;12.094;2024-02-04T02:17:23;1.30;;;1.20;;
18286;SDS011;9269;50.838;12.094;2024-02-04T02:20:19;1.40;;;1.30;;
18286;SDS011;9269;50.838;12.094;2024-02-04T02:23:10;1.13;;;1.10;;
18286;SDS011;9269;50.838;12.094;2024-02-04T02:26:03;1.30;;;1.20;;
18286;SDS011;9269;50.838;12.094;2024-02-04T02:28:53;1.40;;;1.30;;
18286;SDS011;9269;50.838;12.094;2024-02-04T02:31:34;1.17;;;1.17;;
18286;SDS011;9269;50.838;12.094;2024-02-04T02:34:26;1.07;;;1.00;;
18286;SDS011;9269;50.838;12.094;2024-02-04T02:37:27;1.37;;;1.27;;
18286;SDS011;9269;50.838;12.094;2024-02-04T02:40:19;1.07;;;1.03;;
18286;SDS011;9269;50.838;12.094;2024-02-04T02:43:10;1.10;;;1.00;;
18286;SDS011;9269;50.838;12.094;2024-02-04T02:45:56;2.50;;;1.20;;
18286;SDS011;9269;50.838;12.094;2024-02-04T02:48:41;1.27;;;1.17;;
18286;SDS011;9269;50.838;12.094;2024-02-04T02:51:26;1.30;;;1.20;;
18286;SDS011;9269;50.838;12.094;2024-02-04T02:54:14;0.90;;;0.90;;
18286;SDS011;9269;50.838;12.094;2024-02-04T02:56:45;1.73;;;1.03;;
18286;SDS011;9269;50.838;12.094;2024-02-04T02:59:31;1.03;;;1.00;;
18286;SDS011;9269;50.838;12.094;2024-02-04T03:02:17;1.20;;;1.10;;
18286;SDS011;9269;50.838;12.094;2024-02-04T03:04:48;1.67;;;1.10;;
18286;SDS011;9269;50.838;12.094;2024-02-04T03:07:36;1.93;;;1.10;;
18286;SDS011;9269;50.838;12.094;2024-02-04T03:10:17;1.33;;;1.23;;
18286;SDS011;9269;50.838;12.094;2024-02-04T03:13:01;1.43;;;1.33;;
18286;SDS011;9269;50.838;12.094;2024-02-04T03:15:32;1.50;;;1.10;;
18286;SDS011;9269;50.838;12.094;2024-02-04T03:18:05;1.30;;;1.20;;
18286;SDS011;9269;50.838;12.094;2024-02-04T03:20:53;1.13;;;1.10;;
18286;SDS011;9269;50.838;12.094;2024-02-04T03:23:25;1.50;;;1.30;;
18286;SDS011;9269;50.838;12.094;2024-02-04T03:26:11;1.67;;;1.33;;
18286;SDS011;9269;50.838;12.094;2024-02-04T03:29:03;1.30;;;1.20;;
18286;SDS011;9269;50.838;12.094;2024-02-04T03:31:34;1.00;;;1.00;;
18286;SDS011;9269;50.838;12.094;2024-02-04T03:34:21;1.70;;;1.33;;
18286;SDS011;9269;50.838;12.094;2024-02-04T03:37:06;1.40;;;1.30;;
18286;SDS011;9269;50.838;12.094;2024-02-04T03:39:54;1.50;;;1.40;;
18286;SDS011;9269;50.838;12.094;2024-02-04T03:42:42;1.67;;;1.40;;
18286;SDS011;9269;50.838;12.094;2024-02-04T03:45:31;1.40;;;1.20;;
18286;SDS011;9269;50.838;12.094;2024-02-04T03:48:09;1.47;;;1.37;;
18286;SDS011;9269;50.838;12.094;2024-02-04T03:50:57;1.13;;;1.00;;
18286;SDS011;9269;50.838;12.094;2024-02-04T03:53:38;1.00;;;1.00;;
18286;SDS011;9269;50.838;12.094;2024-02-04T03:56:20;1.30;;;1.20;;
18286;SDS011;9269;50.838;12.094;2024-02-04T03:59:07;1.23;;;1.13;;
18286;SDS011;9269;50.838;12.094;2024-02-04T04:01:57;1.10;;;1.00;;
18286;SDS011;9269;50.838;12.094;2024-02-04T04:04:46;1.30;;;1.20;;
18286;SDS011;9269;50.838;12.094;2024-02-04T04:07:32;1.30;;;1.20;;
18286;SDS011;9269;50.838;12.094;2024-02-04T04:10:16;1.57;;;1.27;;
18286;SDS011;9269;50.838;12.094;2024-02-04T04:13:04;1.63;;;1.53;;
18286;SDS011;9269;50.838;12.094;2024-02-04T04:15:52;1.67;;;1.53;;
18286;SDS011;9269;50.838;12.094;2024-02-04T04:18:29;2.10;;;1.60;;
18286;SDS011;9269;50.838;12.094;2024-02-04T04:21:18;1.60;;;1.50;;
18286;SDS011;9269;50.838;12.094;2024-02-04T04:23:57;1.87;;;1.73;;
18286;SDS011;9269;50.838;12.094;2024-02-04T04:26:41;1.90;;;1.70;;
18286;SDS011;9269;50.838;12.094;2024-02-04T04:29:29;2.40;;;1.90;;
18286;SDS011;9269;50.838;12.094;2024-02-04T04:32:16;3.03;;;2.00;;
18286;SDS011;9269;50.838;12.094;2024-02-04T04:34:54;1.87;;;1.73;;
18286;SDS011;9269;50.838;12.094;2024-02-04T04:37:42;1.93;;;1.83;;
18286;SDS011;9269;50.838;12.094;2024-02-04T04:40:23;2.07;;;1.87;;
18286;SDS011;9269;50.838;12.094;2024-02-04T04:43:05;2.60;;;1.83;;
18286;SDS011;9269;50.838;12.094;2024-02-04T04:45:52;1.70;;;1.60;;
18286;SDS011;9269;50.838;12.094;2024-02-04T04:48:35;2.00;;;1.60;;
18286;SDS011;9269;50.838;12.094;2024-02-04T04:51:21;2.53;;;1.67;;
18286;SDS011;9269;50.838;12.094;2024-02-04T04:54:05;2.20;;;1.83;;
18286;SDS011;9269;50.838;12.094;2024-02-04T04:56:53;1.90;;;1.80;;
18286;SDS011;9269;50.838;12.094;2024-02-04T04:59:41;2.13;;;1.90;;
18286;SDS011;9269;50.838;12.094;2024-02-04T05:02:24;1.60;;;1.50;;
18286;SDS011;9269;50.838;12.094;2024-02-04T05:05:03;1.60;;;1.50;;
18286;SDS011;9269;50.838;12.094;2024-02-04T05:07:52;1.40;;;1.30;;
18286;SDS011;9269;50.838;12.094;2024-02-04T05:10:36;1.60;;;1.50;;
18286;SDS011;9269;50.838;12.094;2024-02-04T05:13:25;1.77;;;1.40;;
18286;SDS011;9269;50.838;12.094;2024-02-04T05:16:08;1.40;;;1.30;;
18286;SDS011;9269;50.838;12.094;2024-02-04T05:18:57;1.40;;;1.30;;
18286;SDS011;9269;50.838;12.094;2024-02-04T05:21:27;1.40;;;1.30;;
18286;SDS011;9269;50.838;12.094;2024-02-04T05:24:01;1.30;;;1.20;;
18286;SDS011;9269;50.838;12.094;2024-02-04T05:26:51;1.60;;;1.50;;
18286;SDS011;9269;50.838;12.094;2024-02-04T05:29:40;1.33;;;1.27;;
18286;SDS011;9269;50.838;12.094;2024-02-04T05:32:11;1.63;;;1.30;;
18286;SDS011;9269;50.838;12.094;2024-02-04T05:34:59;1.13;;;1.13;;
18286;SDS011;9269;50.838;12.094;2024-02-04T05:37:30;1.17;;;0.80;;
18286;SDS011;9269;50.838;12.094;2024-02-04T05:40:19;1.07;;;1.07;;
18286;SDS011;9269;50.838;12.094;2024-02-04T05:42:54;1.23;;;1.13;;
18286;SDS011;9269;50.838;12.094;2024-02-04T05:45:28;1.17;;;0.97;;
18286;SDS011;9269;50.838;12.094;2024-02-04T05:48:03;0.73;;;0.73;;
18286;SDS011;9269;50.838;12.094;2024-02-04T05:50:52;0.90;;;0.90;;
18286;SDS011;9269;50.838;12.094;2024-02-04T05:53:38;0.80;;;0.80;;
18286;SDS011;9269;50.838;12.094;2024-02-04T05:56:09;1.20;;;1.10;;
18286;SDS011;9269;50.838;12.094;2024-02-04T05:58:55;0.63;;;0.63;;
18286;SDS011;9269;50.838;12.094;2024-02-04T06:01:43;0.63;;;0.63;;
18286;SDS011;9269;50.838;12.094;2024-02-04T06:04:31;0.73;;;0.73;;
18286;SDS011;9269;50.838;12.094;2024-02-04T06:07:05;1.07;;;0.67;;
18286;SDS011;9269;50.838;12.094;2024-02-04T06:09:41;0.70;;;0.70;;
18286;SDS011;9269;50.838;12.094;2024-02-04T06:12:29;0.70;;;0.70;;
18286;SDS011;9269;50.838;12.094;2024-02-04T06:15:05;0.70;;;0.70;;
18286;SDS011;9269;50.838;12.094;2024-02-04T06:17:44;0.80;;;0.80;;
18286;SDS011;9269;50.838;12.094;2024-02-04T06:20:32;0.80;;;0.80;;
18286;SDS011;9269;50.838;12.094;2024-02-04T06:23:15;1.67;;;0.70;;
18286;SDS011;9269;50.838;12.094;2024-02-04T06:25:51;0.60;;;0.60;;
18286;SDS011;9269;50.838;12.094;2024-02-04T06:28:32;0.70;;;0.60;;
18286;SDS011;9269;50.838;12.094;2024-02-04T06:31:22;0.70;;;0.70;;
18286;SDS011;9269;50.838;12.094;2024-02-04T06:34:09;0.40;;;0.40;;
18286;SDS011;9269;50.838;12.094;2024-02-04T06:36:42;1.10;;;0.60;;
18286;SDS011;9269;50.838;12.094;2024-02-04T06:39:30;0.47;;;0.47;;
18286;SDS011;9269;50.838;12.094;2024-02-04T06:42:14;0.40;;;0.40;;
18286;SDS011;9269;50.838;12.094;2024-02-04T06:44:55;1.33;;;0.50;;
18286;SDS011;9269;50.838;12.094;2024-02-04T06:47:45;0.50;;;0.50;;
18286;SDS011;9269;50.838;12.094;2024-02-04T06:50:27;0.50;;;0.50;;
18286;SDS011;9269;50.838;12.094;2024-02-04T06:53:14;0.37;;;0.37;;
18286;SDS011;9269;50.838;12.094;2024-02-04T06:55:53;0.20;;;0.17;;
18286;SDS011;9269;50.838;12.094;2024-02-04T06:58:40;0.10;;;0.10;;
18286;SDS011;9269;50.838;12.094;2024-02-04T07:01:29;0.17;;;0.17;;
18286;SDS011;9269;50.838;12.094;2024-02-04T07:04:03;0.10;;;0.10;;
18286;SDS011;9269;50.838;12.094;2024-02-04T07:06:51;0.20;;;0.20;;
18286;SDS011;9269;50.838;12.094;2024-02-04T07:09:38;0.10;;;0.10;;
18286;SDS011;9269;50.838;12.094;2024-02-04T07:12:26;0.30;;;0.30;;
18286;SDS011;9269;50.838;12.094;2024-02-04T07:15:00;0.23;;;0.20;;
18286;SDS011;9269;50.838;12.094;2024-02-04T07:17:45;0.20;;;0.20;;
18286;SDS011;9269;50.838;12.094;2024-02-04T07:20:29;0.93;;;0.27;;
18286;SDS011;9269;50.838;12.094;2024-02-04T07:23:17;0.10;;;0.10;;
18286;SDS011;9269;50.838;12.094;2024-02-04T07:26:05;0.10;;;0.10;;
18286;SDS011;9269;50.838;12.094;2024-02-04T07:28:38;0.23;;;0.23;;
18286;SDS011;9269;50.838;12.094;2024-02-04T07:31:15;0.30;;;0.30;;
18286;SDS011;9269;50.838;12.094;2024-02-04T07:33:49;0.10;;;0.10;;
18286;SDS011;9269;50.838;12.094;2024-02-04T07:36:33;0.40;;;0.30;;
18286;SDS011;9269;50.838;12.094;2024-02-04T07:39:04;0.20;;;0.20;;
18286;SDS011;9269;50.838;12.094;2024-02-04T07:41:52;0.10;;;0.10;;
18286;SDS011;9269;50.838;12.094;2024-02-04T07:44:39;0.10;;;0.10;;
18286;SDS011;9269;50.838;12.094;2024-02-04T07:47:28;0.27;;;0.20;;
18286;SDS011;9269;50.838;12.094;2024-02-04T07:50:04;0.20;;;0.20;;
18286;SDS011;9269;50.838;12.094;2024-02-04T07:52:55;0.20;;;0.20;;
18286;SDS011;9269;50.838;12.094;2024-02-04T07:55:43;0.63;;;0.30;;
18286;SDS011;9269;50.838;12.094;2024-02-04T07:58:31;0.20;;;0.20;;
18286;SDS011;9269;50.838;12.094;2024-02-04T08:01:14;0.23;;;0.20;;
18286;SDS011;9269;50.838;12.094;2024-02-04T08:03:48;0.10;;;0.10;;
18286;SDS011;9269;50.838;12.094;2024-02-04T08:06:19;0.20;;;0.20;;
18286;SDS011;9269;50.838;12.094;2024-02-04T08:09:09;0.20;;;0.20;;
18286;SDS011;9269;50.838;12.094;2024-02-04T08:11:58;0.30;;;0.30;;
18286;SDS011;9269;50.838;12.094;2024-02-04T08:14:46;0.27;;;0.27;;
18286;SDS011;9269;50.838;12.094;2024-02-04T08:17:20;0.40;;;0.20;;
18286;SDS011;9269;50.838;12.094;2024-02-04T08:19:57;0.70;;;0.40;;
18286;SDS011;9269;50.838;12.094;2024-02-04T08:22:37;0.30;;;0.30;;
18286;SDS011;9269;50.838;12.094;2024-02-04T08:25:16;0.20;;;0.20;;
18286;SDS011;9269;50.838;12.094;2024-02-04T08:28:04;0.70;;;0.70;;
18286;SDS011;9269;50.838;12.094;2024-02-04T08:30:53;0.50;;;0.40;;
18286;SDS011;9269;50.838;12.094;2024-02-04T08:33:28;0.33;;;0.30;;
18286;SDS011;9269;50.838;12.094;2024-02-04T08:36:08;0.70;;;0.70;;
18286;SDS011;9269;50.838;12.094;2024-02-04T08:38:57;1.13;;;0.70;;
18286;SDS011;9269;50.838;12.094;2024-02-04T08:41:30;1.03;;;0.80;;
18286;SDS011;9269;50.838;12.094;2024-02-04T08:44:04;2.00;;;0.90;;
18286;SDS011;9269;50.838;12.094;2024-02-04T08:46:45;0.97;;;0.97;;
18286;SDS011;9269;50.838;12.094;2024-02-04T08:49:16;1.80;;;1.00;;
18286;SDS011;9269;50.838;12.094;2024-02-04T08:51:55;0.93;;;0.83;;
18286;SDS011;9269;50.838;12.094;2024-02-04T08:54:43;0.60;;;0.60;;
18286;SDS011;9269;50.838;12.094;2024-02-04T08:57:33;0.80;;;0.80;;
18286;SDS011;9269;50.838;12.094;2024-02-04T09:00:12;0.67;;;0.67;;
18286;SDS011;9269;50.838;12.094;2024-02-04T09:02:44;0.50;;;0.50;;
18286;SDS011;9269;50.838;12.094;2024-02-04T09:05:24;0.90;;;0.90;;
18286;SDS011;9269;50.838;12.094;2024-02-04T09:08:09;7.03;;;5.30;;
18286;SDS011;9269;50.838;12.094;2024-02-04T09:10:59;3.47;;;2.53;;
18286;SDS011;9269;50.838;12.094;2024-02-04T09:13:37;2.87;;;2.67;;
18286;SDS011;9269;50.838;12.094;2024-02-04T09:16:31;0.80;;;0.80;;
18286;SDS011;9269;50.838;12.094;2024-02-04T09:19:18;0.70;;;0.70;;
18286;SDS011;9269;50.838;12.094;2024-02-04T09:22:03;0.93;;;0.67;;
18286;SDS011;9269;50.838;12.094;2024-02-04T09:24:41;0.30;;;0.30;;
18286;SDS011;9269;50.838;12.094;2024-02-04T09:27:33;0.57;;;0.57;;
18286;SDS011;9269;50.838;12.094;2024-02-04T09:30:32;1.50;;;1.50;;
18286;SDS011;9269;50.838;12.094;2024-02-04T09:33:11;1.10;;;1.10;;
18286;SDS011;9269;50.838;12.094;2024-02-04T09:36:12;2.30;;;2.10;;
18286;SDS011;9269;50.838;12.094;2024-02-04T09:39:02;1.00;;;1.00;;
18286;SDS011;9269;50.838;12.094;2024-02-04T09:41:51;2.17;;;1.10;;
18286;SDS011;9269;50.838;12.094;2024-02-04T09:44:35;0.60;;;0.60;;
18286;SDS011;9269;50.838;12.094;2024-02-04T09:47:15;0.80;;;0.77;;
18286;SDS011;9269;50.838;12.094;2024-02-04T09:49:59;0.60;;;0.60;;
18286;SDS011;9269;50.838;12.094;2024-02-04T09:52:39;0.50;;;0.50;;
18286;SDS011;9269;50.838;12.094;2024-02-04T09:55:29;1.17;;;0.90;;
18286;SDS011;9269;50.838;12.094;2024-02-04T09:58:14;1.00;;;1.00;;
18286;SDS011;9269;50.838;12.094;2024-02-04T10:01:10;0.70;;;0.70;;
18286;SDS011;9269;50.838;12.094;2024-02-04T10:07:13;1.40;;;1.10;;
18286;SDS011;9269;50.838;12.094;2024-02-04T10:09:50;1.10;;;1.00;;
18286;SDS011;9269;50.838;12.094;2024-02-04T10:13:06;0.90;;;0.90;;
18286;SDS011;9269;50.838;12.094;2024-02-04T10:16:04;1.87;;;1.00;;
18286;SDS011;9269;50.838;12.094;2024-02-04T10:18:57;1.00;;;1.00;;
18286;SDS011;9269;50.838;12.094;2024-02-04T10:25:14;3.93;;;3.20;;
18286;SDS011;9269;50.838;12.094;2024-02-04T10:27:50;9.57;;;6.27;;
18286;SDS011;9269;50.838;12.094;2024-02-04T10:30:38;4.20;;;3.33;;
18286;SDS011;9269;50.838;12.094;2024-02-04T10:33:26;3.93;;;3.27;;
18286;SDS011;9269;50.838;12.094;2024-02-04T10:36:17;2.50;;;2.30;;
18286;SDS011;9269;50.838;12.094;2024-02-04T10:39:03;2.83;;;2.17;;
18286;SDS011;9269;50.838;12.094;2024-02-04T10:41:43;2.83;;;2.13;;
18286;SDS011;9269;50.838;12.094;2024-02-04T10:44:37;1.97;;;1.80;;
18286;SDS011;9269;50.838;12.094;2024-02-04T10:47:30;1.87;;;1.70;;
18286;SDS011;9269;50.838;12.094;2024-02-04T10:50:15;1.70;;;1.60;;
18286;SDS011;9269;50.838;12.094;2024-02-04T10:52:51;1.97;;;1.87;;
18286;SDS011;9269;50.838;12.094;2024-02-04T10:55:24;1.97;;;1.83;;
18286;SDS011;9269;50.838;12.094;2024-02-04T10:58:12;2.23;;;1.77;;
18286;SDS011;9269;50.838;12.094;2024-02-04T11:00:54;1.23;;;1.13;;
18286;SDS011;9269;50.838;12.094;2024-02-04T11:03:43;1.50;;;1.40;;
18286;SDS011;9269;50.838;12.094;2024-02-04T11:06:33;1.50;;;1.40;;
18286;SDS011;9269;50.838;12.094;2024-02-04T11:09:19;1.50;;;1.40;;
18286;SDS011;9269;50.838;12.094;2024-02-04T11:12:03;1.47;;;1.30;;
18286;SDS011;9269;50.838;12.094;2024-02-04T11:14:48;1.43;;;1.20;;
18286;SDS011;9269;50.838;12.094;2024-02-04T11:17:57;1.33;;;1.03;;
18286;SDS011;9269;50.838;12.094;2024-02-04T11:21:00;0.80;;;0.80;;
18286;SDS011;9269;50.838;12.094;2024-02-04T11:23:50;1.40;;;1.30;;
18286;SDS011;9269;50.838;12.094;2024-02-04T11:26:49;0.73;;;0.73;;
18286;SDS011;9269;50.838;12.094;2024-02-04T11:29:28;1.20;;;1.10;;
18286;SDS011;9269;50.838;12.094;2024-02-04T11:32:08;1.90;;;1.20;;
18286;SDS011;9269;50.838;12.094;2024-02-04T11:34:50;1.37;;;0.90;;
18286;SDS011;9269;50.838;12.094;2024-02-04T11:37:22;0.93;;;0.90;;
18286;SDS011;9269;50.838;12.094;2024-02-04T11:40:05;1.00;;;0.70;;
18286;SDS011;9269;50.838;12.094;2024-02-04T11:42:43;1.30;;;1.20;;
18286;SDS011;9269;50.838;12.094;2024-02-04T11:45:21;1.20;;;1.20;;
18286;SDS011;9269;50.838;12.094;2024-02-04T11:47:59;1.13;;;1.03;;
18286;SDS011;9269;50.838;12.094;2024-02-04T11:50:52;0.80;;;0.80;;
18286;SDS011;9269;50.838;12.094;2024-02-04T11:53:28;0.77;;;0.77;;
18286;SDS011;9269;50.838;12.094;2024-02-04T11:56:09;1.07;;;0.97;;
18286;SDS011;9269;50.838;12.094;2024-02-04T11:58:57;1.07;;;1.07;;
18286;SDS011;9269;50.838;12.094;2024-02-04T12:01:31;1.10;;;1.00;;
18286;SDS011;9269;50.838;12.094;2024-02-04T12:04:22;1.80;;;1.70;;
18286;SDS011;9269;50.838;12.094;2024-02-04T12:07:11;1.10;;;1.07;;
18286;SDS011;9269;50.838;12.094;2024-02-04T12:09:43;1.67;;;1.07;;
18286;SDS011;9269;50.838;12.094;2024-02-04T12:12:27;1.93;;;1.30;;
18286;SDS011;9269;50.838;12.094;2024-02-04T12:15:18;1.93;;;1.50;;
18286;SDS011;9269;50.838;12.094;2024-02-04T12:17:51;1.70;;;1.43;;
18286;SDS011;9269;50.838;12.094;2024-02-04T12:20:40;1.17;;;1.07;;
18286;SDS011;9269;50.838;12.094;2024-02-04T12:23:28;2.07;;;1.50;;
18286;SDS011;9269;50.838;12.094;2024-02-04T12:26:15;7.30;;;5.30;;
18286;SDS011;9269;50.838;12.094;2024-02-04T12:28:56;5.57;;;4.60;;
18286;SDS011;9269;50.838;12.094;2024-02-04T12:31:47;3.20;;;2.83;;
18286;SDS011;9269;50.838;12.094;2024-02-04T12:34:18;2.03;;;1.83;;
18286;SDS011;9269;50.838;12.094;2024-02-04T12:37:00;2.13;;;1.60;;
18286;SDS011;9269;50.838;12.094;2024-02-04T12:39:44;1.47;;;1.37;;
18286;SDS011;9269;50.838;12.094;2024-02-04T12:42:28;1.33;;;1.23;;
18286;SDS011;9269;50.838;12.094;2024-02-04T12:45:06;2.83;;;1.43;;
18286;SDS011;9269;50.838;12.094;2024-02-04T12:47:56;1.00;;;1.00;;
18286;SDS011;9269;50.838;12.094;2024-02-04T12:50:45;1.70;;;1.60;;
18286;SDS011;9269;50.838;12.094;2024-02-04T12:53:27;0.97;;;0.97;;
18286;SDS011;9269;50.838;12.094;2024-02-04T12:56:15;1.40;;;1.30;;
18286;SDS011;9269;50.838;12.094;2024-02-04T12:59:03;1.10;;;1.00;;
18286;SDS011;9269;50.838;12.094;2024-02-04T13:01:42;1.20;;;1.10;;
18286;SDS011;9269;50.838;12.094;2024-02-04T13:04:33;5.37;;;3.63;;
18286;SDS011;9269;50.838;12.094;2024-02-04T13:07:13;6.23;;;3.67;;
18286;SDS011;9269;50.838;12.094;2024-02-04T13:09:58;3.67;;;2.33;;
18286;SDS011;9269;50.838;12.094;2024-02-04T13:12:36;2.97;;;2.30;;
18286;SDS011;9269;50.838;12.094;2024-02-04T13:15:15;1.90;;;1.60;;
18286;SDS011;9269;50.838;12.094;2024-02-04T13:17:51;1.90;;;1.60;;
18286;SDS011;9269;50.838;12.094;2024-02-04T13:20:31;1.37;;;1.27;;
18286;SDS011;9269;50.838;12.094;2024-02-04T13:23:19;1.20;;;1.10;;
18286;SDS011;9269;50.838;12.094;2024-02-04T13:26:05;1.10;;;1.00;;
18286;SDS011;9269;50.838;12.094;2024-02-04T13:28:38;1.30;;;1.20;;
18286;SDS011;9269;50.838;12.094;2024-02-04T13:31:13;1.00;;;0.77;;
18286;SDS011;9269;50.838;12.094;2024-02-04T13:33:48;1.13;;;1.03;;
18286;SDS011;9269;50.838;12.094;2024-02-04T13:36:36;1.27;;;0.80;;
18286;SDS011;9269;50.838;12.094;2024-02-04T13:39:12;1.67;;;0.90;;
18286;SDS011;9269;50.838;12.094;2024-02-04T13:41:44;0.90;;;0.90;;
18286;SDS011;9269;50.838;12.094;2024-02-04T13:44:27;0.80;;;0.80;;
18286;SDS011;9269;50.838;12.094;2024-02-04T13:47:10;1.13;;;0.70;;
18286;SDS011;9269;50.838;12.094;2024-02-04T13:49:58;0.73;;;0.73;;
18286;SDS011;9269;50.838;12.094;2024-02-04T13:52:47;0.70;;;0.70;;
18286;SDS011;9269;50.838;12.094;2024-02-04T13:55:35;0.93;;;0.90;;
18286;SDS011;9269;50.838;12.094;2024-02-04T13:58:25;0.70;;;0.70;;
18286;SDS011;9269;50.838;12.094;2024-02-04T14:01:07;0.70;;;0.70;;
18286;SDS011;9269;50.838;12.094;2024-02-04T14:03:56;0.97;;;0.60;;
18286;SDS011;9269;50.838;12.094;2024-02-04T14:06:29;0.80;;;0.80;;
18286;SDS011;9269;50.838;12.094;2024-02-04T14:09:16;2.00;;;0.60;;
18286;SDS011;9269;50.838;12.094;2024-02-04T14:12:04;0.60;;;0.60;;
18286;SDS011;9269;50.838;12.094;2024-02-04T14:14:43;0.47;;;0.47;;
18286;SDS011;9269;50.838;12.094;2024-02-04T14:17:24;0.83;;;0.83;;
18286;SDS011;9269;50.838;12.094;2024-02-04T14:20:09;0.70;;;0.70;;
18286;SDS011;9269;50.838;12.094;2024-02-04T14:22:40;1.10;;;0.70;;
18286;SDS011;9269;50.838;12.094;2024-02-04T14:25:11;1.33;;;0.90;;
18286;SDS011;9269;50.838;12.094;2024-02-04T14:27:59;0.80;;;0.80;;
18286;SDS011;9269;50.838;12.094;2024-02-04T14:30:43;2.53;;;1.30;;
18286;SDS011;9269;50.838;12.094;2024-02-04T14:33:14;1.33;;;0.90;;
18286;SDS011;9269;50.838;12.094;2024-02-04T14:35:56;1.40;;;1.30;;
18286;SDS011;9269;50.838;12.094;2024-02-04T14:38:46;0.90;;;0.73;;
18286;SDS011;9269;50.838;12.094;2024-02-04T14:41:34;0.80;;;0.80;;
18286;SDS011;9269;50.838;12.094;2024-02-04T14:44:22;2.47;;;2.17;;
18286;SDS011;9269;50.838;12.094;2024-02-04T14:47:12;3.20;;;2.90;;
18286;SDS011;9269;50.838;12.094;2024-02-04T14:49:52;2.30;;;2.10;;
18286;SDS011;9269;50.838;12.094;2024-02-04T14:52:28;15.23;;;11.97;;
18286;SDS011;9269;50.838;12.094;2024-02-04T14:55:01;5.47;;;4.40;;
18286;SDS011;9269;50.838;12.094;2024-02-04T14:57:35;13.90;;;10.10;;
18286;SDS011;9269;50.838;12.094;2024-02-04T15:00:23;9.30;;;7.33;;
18286;SDS011;9269;50.838;12.094;2024-02-04T15:03:02;1.63;;;1.53;;
18286;SDS011;9269;50.838;12.094;2024-02-04T15:05:51;1.50;;;1.30;;
18286;SDS011;9269;50.838;12.094;2024-02-04T15:08:39;1.33;;;1.23;;
18286;SDS011;9269;50.838;12.094;2024-02-04T15:11:09;2.43;;;2.00;;
18286;SDS011;9269;50.838;12.094;2024-02-04T15:13:46;2.60;;;2.40;;
18286;SDS011;9269;50.838;12.094;2024-02-04T15:16:16;2.23;;;2.00;;
18286;SDS011;9269;50.838;12.094;2024-02-04T15:19:06;2.43;;;1.60;;
18286;SDS011;9269;50.838;12.094;2024-02-04T15:21:55;1.97;;;1.60;;
18286;SDS011;9269;50.838;12.094;2024-02-04T15:24:36;1.43;;;1.33;;
18286;SDS011;9269;50.838;12.094;2024-02-04T15:27:11;1.87;;;1.47;;
18286;SDS011;9269;50.838;12.094;2024-02-04T15:29:48;2.47;;;1.47;;
18286;SDS011;9269;50.838;12.094;2024-02-04T15:32:28;1.30;;;1.20;;
18286;SDS011;9269;50.838;12.094;2024-02-04T15:35:18;1.27;;;1.17;;
18286;SDS011;9269;50.838;12.094;2024-02-04T15:38:07;1.60;;;1.50;;
18286;SDS011;9269;50.838;12.094;2024-02-04T15:40:55;1.63;;;1.20;;
18286;SDS011;9269;50.838;12.094;2024-02-04T15:43:42;4.00;;;1.30;;
18286;SDS011;9269;50.838;12.094;2024-02-04T15:46:31;1.20;;;1.20;;
18286;SDS011;9269;50.838;12.094;2024-02-04T15:49:11;0.90;;;0.90;;
18286;SDS011;9269;50.838;12.094;2024-02-04T15:51:48;1.50;;;1.40;;
18286;SDS011;9269;50.838;12.094;2024-02-04T15:54:34;2.83;;;2.57;;
18286;SDS011;9269;50.838;12.094;2024-02-04T15:57:14;1.03;;;1.00;;
18286;SDS011;9269;50.838;12.094;2024-02-04T15:59:58;2.23;;;2.00;;
18286;SDS011;9269;50.838;12.094;2024-02-04T16:03:04;1.80;;;1.60;;
18286;SDS011;9269;50.838;12.094;2024-02-04T16:05:34;1.77;;;1.63;;
18286;SDS011;9269;50.838;12.094;2024-02-04T16:08:04;4.57;;;4.17;;
18286;SDS011;9269;50.838;12.094;2024-02-04T16:10:35;1.97;;;1.87;;
18286;SDS011;9269;50.838;12.094;2024-02-04T16:13:06;1.80;;;1.70;;
18286;SDS011;9269;50.838;12.094;2024-02-04T16:15:37;1.97;;;1.77;;
18286;SDS011;9269;50.838;12.094;2024-02-04T16:18:19;3.20;;;1.47;;
18286;SDS011;9269;50.838;12.094;2024-02-04T16:20:48;1.27;;;1.07;;
18286;SDS011;9269;50.838;12.094;2024-02-04T16:23:20;1.00;;;1.00;;
18286;SDS011;9269;50.838;12.094;2024-02-04T16:25:49;1.20;;;1.10;;
18286;SDS011;9269;50.838;12.094;2024-02-04T16:28:19;0.90;;;0.90;;
18286;SDS011;9269;50.838;12.094;2024-02-04T16:30:52;1.60;;;1.00;;
18286;SDS011;9269;50.838;12.094;2024-02-04T16:33:41;0.90;;;0.90;;